createdAt,value
2018-08-25T00:00:15.134Z,16.07
2018-08-25T00:02:45.166Z,16.12
2018-08-25T00:05:14.236Z,16.11
2018-08-25T00:07:43.650Z,16.13
2018-08-25T00:10:12.869Z,16.18
2018-08-25T00:12:41.291Z,16.12
2018-08-25T00:15:10.538Z,16.12
2018-08-25T00:17:39.892Z,16.03
2018-08-25T00:20:09.290Z,15.97
2018-08-25T00:22:38.676Z,15.85
2018-08-25T00:25:08.035Z,15.77
2018-08-25T00:27:37.290Z,15.69
2018-08-25T00:31:09.733Z,15.56
2018-08-25T00:33:38.220Z,15.50
2018-08-25T00:36:07.597Z,15.43
2018-08-25T00:38:35.946Z,15.39
2018-08-25T00:41:04.278Z,15.37
2018-08-25T00:43:39.354Z,15.39
2018-08-25T00:46:08.703Z,15.42
2018-08-25T00:48:38.112Z,15.47
2018-08-25T00:51:06.460Z,15.50
2018-08-25T00:53:36.112Z,15.51
2018-08-25T00:56:05.765Z,15.55
2018-08-25T00:58:34.961Z,15.59
2018-08-25T01:01:04.850Z,15.69
2018-08-25T01:03:34.189Z,15.73
2018-08-25T01:06:03.536Z,15.72
2018-08-25T01:08:31.873Z,15.70
2018-08-25T01:11:01.086Z,15.64
2018-08-25T01:13:30.317Z,15.51
2018-08-25T01:15:59.702Z,15.44
2018-08-25T01:18:29.047Z,15.41
2018-08-25T01:20:58.295Z,15.41
2018-08-25T01:23:27.629Z,15.47
2018-08-25T01:25:55.979Z,15.47
2018-08-25T01:28:25.279Z,15.47
2018-08-25T01:30:54.682Z,15.53
2018-08-25T01:33:23.909Z,15.54
2018-08-25T01:35:53.305Z,15.51
2018-08-25T01:38:21.754Z,15.50
2018-08-25T01:40:51.163Z,15.47
2018-08-25T01:43:20.565Z,15.39
2018-08-25T01:45:50.625Z,15.32
2018-08-25T01:48:18.973Z,15.22
2018-08-25T01:50:47.460Z,15.13
2018-08-25T01:53:18.686Z,15.04
2018-08-25T01:55:48.043Z,14.97
2018-08-25T01:58:17.937Z,14.91
2018-08-25T02:00:48.246Z,14.84
2018-08-25T02:03:17.982Z,14.85
2018-08-25T02:05:47.405Z,14.80
2018-08-25T02:08:18.056Z,14.78
2018-08-25T02:10:46.397Z,14.78
2018-08-25T02:13:17.954Z,14.73
2018-08-25T02:15:54.152Z,14.73
2018-08-25T02:18:22.481Z,14.68
2018-08-25T02:20:52.003Z,14.64
2018-08-25T02:23:21.849Z,14.63
2018-08-25T02:25:50.281Z,14.66
2018-08-25T02:28:20.557Z,14.71
2018-08-25T02:30:49.740Z,14.80
2018-08-25T02:33:20.458Z,14.87
2018-08-25T02:35:49.929Z,14.92
2018-08-25T02:38:20.363Z,15.05
2018-08-25T02:40:49.454Z,15.08
2018-08-25T02:43:19.757Z,15.11
2018-08-25T02:45:49.732Z,15.09
2018-08-25T02:48:19.032Z,15.05
2018-08-25T02:50:48.017Z,15.05
2018-08-25T02:53:17.637Z,15.03
2018-08-25T02:55:46.854Z,15.02
2018-08-25T02:58:16.168Z,15.00
2018-08-25T03:00:46.452Z,15.02
2018-08-25T03:03:15.873Z,15.03
2018-08-25T03:05:45.369Z,15.02
2018-08-25T03:08:14.484Z,15.02
2018-08-25T03:10:42.873Z,15.02
2018-08-25T03:13:11.211Z,15.04
2018-08-25T03:15:39.541Z,15.05
2018-08-25T03:18:07.924Z,15.05
2018-08-25T03:20:36.281Z,15.04
2018-08-25T03:23:04.621Z,15.06
2018-08-25T03:25:33.041Z,15.12
2018-08-25T03:28:01.412Z,15.18
2018-08-25T03:30:29.752Z,15.13
2018-08-25T03:32:58.097Z,15.09
2018-08-25T03:35:26.422Z,15.11
2018-08-25T03:37:54.853Z,15.08
2018-08-25T03:40:23.196Z,15.11
2018-08-25T03:42:51.549Z,15.10
2018-08-25T03:45:20.825Z,15.09
2018-08-25T03:47:49.919Z,15.07
2018-08-25T03:50:19.173Z,15.08
2018-08-25T03:52:48.037Z,15.00
2018-08-25T03:55:16.392Z,14.98
2018-08-25T03:57:45.725Z,14.97
2018-08-25T04:00:15.101Z,14.91
2018-08-25T04:02:44.201Z,14.87
2018-08-25T04:05:13.281Z,14.85
2018-08-25T04:07:41.886Z,14.83
2018-08-25T04:10:11.143Z,14.84
2018-08-25T04:12:40.528Z,14.87
2018-08-25T04:15:09.734Z,14.84
2018-08-25T04:17:39.078Z,14.84
2018-08-25T04:20:07.527Z,14.81
2018-08-25T04:22:35.868Z,14.82
2018-08-25T04:25:04.465Z,14.77
2018-08-25T04:27:32.841Z,14.75
2018-08-25T04:30:01.174Z,14.72
2018-08-25T04:32:29.515Z,14.69
2018-08-25T04:34:58.833Z,14.66
2018-08-25T04:37:27.303Z,14.74
2018-08-25T04:39:55.645Z,14.75
2018-08-25T04:42:23.969Z,14.76
2018-08-25T04:44:52.293Z,14.76
2018-08-25T04:47:20.652Z,14.80
2018-08-25T04:49:49.625Z,14.81
2018-08-25T04:52:18.797Z,14.84
2018-08-25T04:54:47.145Z,14.83
2018-08-25T04:57:16.229Z,14.86
2018-08-25T04:59:45.213Z,14.88
2018-08-25T05:02:14.658Z,14.97
2018-08-25T05:04:44.155Z,15.02
2018-08-25T05:07:14.278Z,15.03
2018-08-25T05:09:43.438Z,15.05
2018-08-25T05:12:11.757Z,15.07
2018-08-25T05:14:40.229Z,15.07
2018-08-25T05:17:08.645Z,15.07
2018-08-25T05:19:37.069Z,15.06
2018-08-25T05:22:05.501Z,15.07
2018-08-25T05:24:33.781Z,15.10
2018-08-25T05:27:02.123Z,15.15
2018-08-25T05:29:30.452Z,15.19
2018-08-25T05:31:58.792Z,15.28
2018-08-25T05:34:27.183Z,15.31
2018-08-25T05:36:55.509Z,15.44
2018-08-25T05:39:23.900Z,15.46
2018-08-25T05:41:52.313Z,15.51
2018-08-25T05:44:20.727Z,15.66
2018-08-25T05:46:49.602Z,15.77
2018-08-25T05:49:19.258Z,15.88
2018-08-25T05:51:48.052Z,15.92
2018-08-25T05:54:16.393Z,15.94
2018-08-25T05:56:46.036Z,15.99
2018-08-25T05:59:15.841Z,16.12
2018-08-25T06:01:45.184Z,16.06
2018-08-25T06:04:15.098Z,16.12
2018-08-25T06:06:44.056Z,16.22
2018-08-25T06:09:14.858Z,16.14
2018-08-25T06:11:45.396Z,16.10
2018-08-25T06:14:14.453Z,16.05
2018-08-25T06:16:44.510Z,16.13
2018-08-25T06:19:12.933Z,16.27
2018-08-25T06:21:41.401Z,16.31
2018-08-25T06:24:09.743Z,16.32
2018-08-25T06:26:38.085Z,16.47
2018-08-25T06:29:06.533Z,16.58
2018-08-25T06:31:34.909Z,16.67
2018-08-25T06:34:03.328Z,16.71
2018-08-25T06:36:31.758Z,16.78
2018-08-25T06:39:00.277Z,16.75
2018-08-25T06:41:28.620Z,16.69
2018-08-25T06:43:57.068Z,16.69
2018-08-25T06:46:25.477Z,16.62
2018-08-25T06:48:53.841Z,16.67
2018-08-25T06:51:22.177Z,16.68
2018-08-25T06:53:51.332Z,16.81
2018-08-25T06:56:20.835Z,17.01
2018-08-25T06:58:49.171Z,17.16
2018-08-25T07:01:18.138Z,17.43
2018-08-25T07:03:46.558Z,17.62
2018-08-25T07:06:15.577Z,17.66
2018-08-25T07:08:43.922Z,17.77
2018-08-25T07:11:12.310Z,17.87
2018-08-25T07:13:40.663Z,17.88
2018-08-25T07:16:09.003Z,17.75
2018-08-25T07:18:37.436Z,17.79
2018-08-25T07:21:05.841Z,17.77
2018-08-25T07:23:34.212Z,17.70
2018-08-25T07:26:02.542Z,17.86
2018-08-25T07:28:30.960Z,18.07
2018-08-25T07:31:00.325Z,18.29
2018-08-25T07:33:28.673Z,18.51
2018-08-25T07:35:57.082Z,18.77
2018-08-25T07:38:25.642Z,18.86
2018-08-25T07:40:53.915Z,18.99
2018-08-25T07:43:22.316Z,19.19
2018-08-25T07:45:51.642Z,19.25
2018-08-25T07:48:20.685Z,19.09
2018-08-25T07:50:49.956Z,19.25
2018-08-25T07:53:19.140Z,19.16
2018-08-25T07:55:48.116Z,19.40
2018-08-25T07:58:16.531Z,19.43
2018-08-25T08:00:45.561Z,19.51
2018-08-25T08:03:14.973Z,19.70
2018-08-25T08:05:44.285Z,19.40
2018-08-25T08:08:13.359Z,19.38
2018-08-25T08:10:41.765Z,19.47
2018-08-25T08:13:10.081Z,19.44
2018-08-25T08:15:38.464Z,19.30
2018-08-25T08:18:07.918Z,19.17
2018-08-25T08:20:36.261Z,19.09
2018-08-25T08:23:04.598Z,19.22
2018-08-25T08:25:33.917Z,19.03
2018-08-25T08:28:02.487Z,19.05
2018-08-25T08:30:31.954Z,19.06
2018-08-25T08:33:00.358Z,19.34
2018-08-25T08:35:29.637Z,19.59
2018-08-25T08:37:59.008Z,19.58
2018-08-25T08:40:28.278Z,19.63
2018-08-25T08:42:56.614Z,19.52
2018-08-25T08:45:25.005Z,19.54
2018-08-25T08:47:53.324Z,19.54
2018-08-25T08:50:21.815Z,19.46
2018-08-25T08:52:51.245Z,19.46
2018-08-25T08:55:22.204Z,19.41
2018-08-25T08:57:51.845Z,19.46
2018-08-25T09:00:21.654Z,19.56
2018-08-25T09:02:50.932Z,19.62
2018-08-25T09:05:20.136Z,19.91
2018-08-25T09:07:49.997Z,20.12
2018-08-25T09:10:20.095Z,20.10
2018-08-25T09:12:50.469Z,20.24
2018-08-25T09:15:19.280Z,20.45
2018-08-25T09:17:49.127Z,20.52
2018-08-25T09:20:19.776Z,20.51
2018-08-25T09:22:48.558Z,20.39
2018-08-25T09:25:17.920Z,19.86
2018-08-25T09:27:47.166Z,19.77
2018-08-25T09:30:16.362Z,19.83
2018-08-25T09:32:46.602Z,19.63
2018-08-25T09:35:15.822Z,19.70
2018-08-25T09:37:45.813Z,19.78
2018-08-25T09:40:15.888Z,20.15
2018-08-25T09:42:45.835Z,20.24
2018-08-25T09:45:15.797Z,20.13
2018-08-25T09:47:45.851Z,20.07
2018-08-25T09:50:15.324Z,20.00
2018-08-25T09:52:44.409Z,20.08
2018-08-25T09:55:14.353Z,19.97
2018-08-25T09:57:44.736Z,20.02
2018-08-25T10:00:13.836Z,20.31
2018-08-25T10:02:44.368Z,20.53
2018-08-25T10:05:14.459Z,20.70
2018-08-25T10:07:43.971Z,20.61
2018-08-25T10:10:14.414Z,20.68
2018-08-25T10:12:44.505Z,20.83
2018-08-25T10:15:14.333Z,20.77
2018-08-25T10:17:44.409Z,20.73
2018-08-25T10:20:14.333Z,20.71
2018-08-25T10:22:43.453Z,20.81
2018-08-25T10:25:13.728Z,20.78
2018-08-25T10:27:42.962Z,20.69
2018-08-25T10:30:12.317Z,20.95
2018-08-25T10:32:41.475Z,21.16
2018-08-25T10:35:10.745Z,21.22
2018-08-25T10:37:39.088Z,21.17
2018-08-25T10:40:08.458Z,21.23
2018-08-25T10:42:37.710Z,21.19
2018-08-25T10:45:06.505Z,21.33
2018-08-25T10:47:35.723Z,21.66
2018-08-25T10:50:05.169Z,21.83
2018-08-25T10:52:33.545Z,21.86
2018-08-25T10:55:02.909Z,21.76
2018-08-25T10:57:31.325Z,21.67
2018-08-25T11:00:00.834Z,21.51
2018-08-25T11:02:29.525Z,21.61
2018-08-25T11:04:58.856Z,21.69
2018-08-25T11:07:27.202Z,21.49
2018-08-25T11:09:56.543Z,21.53
2018-08-25T11:12:25.753Z,21.47
2018-08-25T11:14:54.956Z,21.48
2018-08-25T11:17:24.156Z,21.56
2018-08-25T11:19:52.528Z,21.45
2018-08-25T11:22:21.551Z,21.44
2018-08-25T11:24:50.577Z,21.26
2018-08-25T11:27:19.125Z,21.46
2018-08-25T11:29:47.441Z,21.50
2018-08-25T11:32:16.973Z,21.59
2018-08-25T11:34:46.349Z,21.81
2018-08-25T11:37:15.353Z,21.86
2018-08-25T11:39:44.339Z,22.03
2018-08-25T11:42:14.349Z,22.26
2018-08-25T11:44:43.720Z,22.34
2018-08-25T11:47:19.240Z,22.20
2018-08-25T11:49:48.677Z,22.20
2018-08-25T11:52:17.029Z,22.31
2018-08-25T11:54:46.201Z,22.46
2018-08-25T11:57:15.512Z,22.69
2018-08-25T11:59:43.906Z,22.65
2018-08-25T12:02:14.101Z,22.65
2018-08-25T12:04:43.557Z,22.57
2018-08-25T12:07:12.825Z,22.24
2018-08-25T12:09:42.265Z,22.28
2018-08-25T12:12:10.593Z,22.12
2018-08-25T12:14:39.923Z,22.25
2018-08-25T12:17:08.297Z,22.51
2018-08-25T12:19:37.652Z,22.49
2018-08-25T12:22:06.322Z,22.43
2018-08-25T12:24:35.670Z,22.67
2018-08-25T12:27:05.404Z,22.93
2018-08-25T12:29:34.621Z,22.94
2018-08-25T12:32:03.853Z,23.02
2018-08-25T12:34:33.201Z,23.13
2018-08-25T12:37:02.397Z,23.38
2018-08-25T12:39:31.696Z,23.39
2018-08-25T12:42:01.145Z,23.46
2018-08-25T12:44:30.489Z,23.47
2018-08-25T12:46:59.929Z,23.40
2018-08-25T12:49:29.177Z,23.34
2018-08-25T12:51:58.490Z,23.25
2018-08-25T12:54:27.862Z,23.28
2018-08-25T12:56:57.217Z,23.13
2018-08-25T12:59:27.454Z,22.74
2018-08-25T13:01:56.652Z,22.66
2018-08-25T13:04:26.845Z,22.36
2018-08-25T13:06:56.076Z,22.16
2018-08-25T13:09:25.616Z,21.72
2018-08-25T13:11:54.950Z,21.47
2018-08-25T13:14:24.162Z,21.24
2018-08-25T13:16:53.363Z,20.91
2018-08-25T13:19:22.643Z,20.75
2018-08-25T13:21:51.897Z,19.82
2018-08-25T13:24:21.378Z,19.12
2018-08-25T13:26:51.223Z,18.73
2018-08-25T13:29:21.344Z,18.36
2018-08-25T13:31:51.141Z,18.31
2018-08-25T13:34:20.479Z,18.24
2018-08-25T13:36:49.395Z,18.09
2018-08-25T13:39:19.741Z,18.04
2018-08-25T13:41:48.078Z,17.93
2018-08-25T13:44:16.437Z,17.79
2018-08-25T13:46:47.000Z,17.68
2018-08-25T13:49:16.554Z,17.45
2018-08-25T13:51:45.506Z,17.21
2018-08-25T13:54:14.050Z,17.13
2018-08-25T13:56:42.385Z,17.03
2018-08-25T13:59:11.041Z,17.01
2018-08-25T14:01:39.433Z,16.82
2018-08-25T14:04:07.778Z,16.79
2018-08-25T14:06:36.117Z,16.63
2018-08-25T14:09:06.195Z,16.49
2018-08-25T14:11:34.522Z,16.72
2018-08-25T14:14:02.874Z,16.72
2018-08-25T14:16:31.353Z,16.82
2018-08-25T14:19:00.390Z,16.96
2018-08-25T14:21:28.833Z,16.89
2018-08-25T14:23:57.185Z,16.98
2018-08-25T14:26:25.540Z,16.90
2018-08-25T14:28:53.910Z,17.00
2018-08-25T14:31:22.233Z,16.88
2018-08-25T14:33:51.441Z,16.95
2018-08-25T14:36:20.386Z,16.81
2018-08-25T14:38:49.599Z,16.79
2018-08-25T14:41:18.367Z,16.72
2018-08-25T14:43:46.689Z,16.74
2018-08-25T14:46:16.412Z,16.69
2018-08-25T14:48:45.761Z,16.79
2018-08-25T14:51:15.157Z,16.85
2018-08-25T14:53:44.676Z,17.08
2018-08-25T14:56:13.536Z,17.06
2018-08-25T14:58:41.861Z,17.06
2018-08-25T15:01:10.321Z,17.10
2018-08-25T15:03:39.449Z,17.11
2018-08-25T15:06:07.805Z,17.20
2018-08-25T15:08:36.281Z,17.44
2018-08-25T15:11:04.620Z,17.76
2018-08-25T15:13:33.002Z,18.14
2018-08-25T15:16:01.341Z,18.61
2018-08-25T15:18:29.973Z,19.05
2018-08-25T15:20:58.318Z,19.34
2018-08-25T15:23:26.641Z,19.42
2018-08-25T15:25:55.092Z,19.48
2018-08-25T15:28:23.425Z,19.59
2018-08-25T15:30:51.770Z,19.98
2018-08-25T15:33:21.256Z,20.86
2018-08-25T15:35:51.450Z,21.20
2018-08-25T15:38:22.311Z,21.11
2018-08-25T15:40:51.685Z,20.78
2018-08-25T15:43:21.453Z,20.75
2018-08-25T15:45:51.713Z,20.54
2018-08-25T15:48:21.064Z,20.16
2018-08-25T15:50:51.154Z,20.06
2018-08-25T15:53:21.402Z,19.83
2018-08-25T15:55:50.670Z,19.97
2018-08-25T15:58:20.778Z,19.99
2018-08-25T16:00:50.377Z,19.84
2018-08-25T16:03:20.418Z,19.73
2018-08-25T16:05:50.479Z,19.57
2018-08-25T16:08:20.684Z,19.42
2018-08-25T16:10:50.544Z,19.40
2018-08-25T16:13:19.229Z,19.14
2018-08-25T16:15:49.457Z,19.21
2018-08-25T16:18:19.312Z,19.05
2018-08-25T16:20:49.103Z,19.07
2018-08-25T16:23:17.553Z,18.90
2018-08-25T16:25:46.974Z,18.76
2018-08-25T16:28:16.241Z,18.69
2018-08-25T16:30:45.753Z,18.70
2018-08-25T16:33:15.689Z,18.65
2018-08-25T16:35:46.265Z,18.58
2018-08-25T16:38:16.003Z,18.55
2018-08-25T16:40:46.318Z,18.48
2018-08-25T16:43:16.068Z,18.54
2018-08-25T16:45:45.355Z,18.56
2018-08-25T16:48:15.546Z,18.48
2018-08-25T16:50:43.937Z,18.43
2018-08-25T16:53:12.781Z,18.43
2018-08-25T16:55:41.110Z,18.38
2018-08-25T16:58:10.230Z,18.27
2018-08-25T17:00:38.552Z,18.25
2018-08-25T17:03:07.877Z,18.14
2018-08-25T17:05:36.305Z,18.00
2018-08-25T17:08:05.517Z,18.08
2018-08-25T17:10:33.854Z,18.13
2018-08-25T17:13:02.325Z,18.25
2018-08-25T17:15:30.657Z,18.20
2018-08-25T17:17:59.888Z,18.05
2018-08-25T17:20:29.325Z,18.11
2018-08-25T17:22:58.661Z,17.98
2018-08-25T17:25:28.011Z,17.99
2018-08-25T17:27:56.507Z,18.00
2018-08-25T17:30:24.836Z,17.86
2018-08-25T17:32:53.974Z,17.68
2018-08-25T17:35:22.337Z,17.58
2018-08-25T17:37:51.581Z,17.26
2018-08-25T17:40:22.465Z,17.18
2018-08-25T17:42:52.309Z,17.04
2018-08-25T17:45:21.789Z,17.00
2018-08-25T17:47:51.132Z,16.93
2018-08-25T17:50:20.684Z,16.80
2018-08-25T17:52:50.673Z,16.66
2018-08-25T17:55:20.942Z,16.59
2018-08-25T17:57:50.162Z,16.50
2018-08-25T18:00:19.635Z,16.45
2018-08-25T18:02:48.522Z,16.36
2018-08-25T18:05:16.923Z,16.34
2018-08-25T18:07:47.137Z,16.21
2018-08-25T18:10:16.030Z,16.14
2018-08-25T18:12:45.864Z,15.91
2018-08-25T18:15:15.350Z,15.73
2018-08-25T18:17:43.862Z,15.69
2018-08-25T18:20:12.205Z,15.52
2018-08-25T18:22:40.554Z,15.37
2018-08-25T18:25:09.934Z,15.29
2018-08-25T18:27:38.382Z,15.16
2018-08-25T18:30:16.333Z,15.14
2018-08-25T18:32:46.709Z,15.08
2018-08-25T18:35:16.632Z,15.19
2018-08-25T18:37:45.857Z,15.13
2018-08-25T18:40:15.117Z,15.08
2018-08-25T18:42:45.637Z,15.09
2018-08-25T18:45:15.929Z,14.97
2018-08-25T18:47:44.949Z,14.87
2018-08-25T18:50:18.531Z,14.82
2018-08-25T18:52:46.896Z,14.78
2018-08-25T18:55:16.493Z,14.75
2018-08-25T18:57:45.881Z,14.60
2018-08-25T19:00:15.909Z,14.62
2018-08-25T19:02:45.499Z,14.52
2018-08-25T19:05:13.881Z,14.47
2018-08-25T19:07:44.425Z,14.42
2018-08-25T19:10:14.509Z,14.31
2018-08-25T19:12:43.890Z,14.26
2018-08-25T19:15:14.375Z,14.21
2018-08-25T19:17:44.542Z,14.19
2018-08-25T19:20:13.874Z,14.19
2018-08-25T19:22:42.993Z,14.12
2018-08-25T19:25:12.193Z,14.02
2018-08-25T19:27:41.532Z,14.04
2018-08-25T19:30:10.912Z,13.89
2018-08-25T19:32:39.248Z,13.78
2018-08-25T19:35:08.633Z,13.78
2018-08-25T19:37:37.100Z,13.63
2018-08-25T19:40:06.636Z,13.53
2018-08-25T19:42:35.920Z,13.43
2018-08-25T19:45:05.424Z,13.32
2018-08-25T19:47:34.658Z,13.32
2018-08-25T19:50:03.001Z,13.21
2018-08-25T19:52:32.438Z,13.15
2018-08-25T19:55:01.801Z,13.16
2018-08-25T19:57:30.341Z,13.14
2018-08-25T19:59:58.665Z,13.22
2018-08-25T20:02:27.005Z,13.14
2018-08-25T20:04:55.476Z,13.10
2018-08-25T20:07:23.813Z,13.08
2018-08-25T20:09:52.521Z,13.01
2018-08-25T20:12:22.473Z,12.92
2018-08-25T20:14:51.789Z,12.89
2018-08-25T20:17:20.892Z,12.77
2018-08-25T20:19:49.714Z,12.75
2018-08-25T20:22:19.772Z,12.62
2018-08-25T20:24:48.697Z,12.68
2018-08-25T20:27:17.013Z,12.72
2018-08-25T20:29:46.271Z,12.71
2018-08-25T20:32:15.776Z,12.70
2018-08-25T20:34:45.733Z,12.74
2018-08-25T20:37:15.184Z,12.71
2018-08-25T20:39:45.305Z,12.73
2018-08-25T20:42:14.461Z,12.75
2018-08-25T20:44:42.881Z,12.80
2018-08-25T20:47:11.265Z,12.76
2018-08-25T20:49:39.593Z,12.64
2018-08-25T20:52:08.832Z,12.66
2018-08-25T20:54:37.462Z,12.57
2018-08-25T20:57:05.921Z,12.56
2018-08-25T20:59:34.314Z,12.46
2018-08-25T21:02:03.732Z,12.44
2018-08-25T21:04:32.249Z,12.40
2018-08-25T21:07:00.669Z,12.37
2018-08-25T21:09:30.060Z,12.31
2018-08-25T21:11:58.414Z,12.27
2018-08-25T21:14:26.817Z,12.42
2018-08-25T21:16:55.139Z,12.40
2018-08-25T21:19:23.539Z,12.35
2018-08-25T21:21:52.766Z,12.28
2018-08-25T21:24:21.980Z,12.25
2018-08-25T21:26:51.503Z,12.21
2018-08-25T21:29:20.669Z,12.23
2018-08-25T21:31:49.665Z,12.21
2018-08-25T21:34:20.041Z,12.24
2018-08-25T21:36:49.412Z,12.25
2018-08-25T21:39:18.829Z,12.27
2018-08-25T21:41:48.283Z,12.23
2018-08-25T21:44:16.605Z,12.25
2018-08-25T21:46:46.432Z,12.23
2018-08-25T21:49:15.789Z,12.34
2018-08-25T21:51:45.143Z,12.30
2018-08-25T21:54:14.683Z,12.25
2018-08-25T21:56:45.216Z,12.27
2018-08-25T21:59:15.174Z,12.23
2018-08-25T22:01:50.985Z,12.16
2018-08-25T22:04:20.450Z,12.14
2018-08-25T22:06:50.770Z,12.15
2018-08-25T22:09:21.088Z,12.18
2018-08-25T22:11:49.918Z,12.14
2018-08-25T22:14:18.659Z,12.13
2018-08-25T22:16:48.760Z,12.07
2018-08-25T22:19:19.111Z,12.03
2018-08-25T22:21:48.846Z,11.99
2018-08-25T22:24:19.203Z,11.97
2018-08-25T22:26:49.750Z,11.91
2018-08-25T22:29:19.810Z,11.87
2018-08-25T22:31:48.567Z,11.80
2018-08-25T22:34:17.905Z,11.75
2018-08-25T22:36:48.254Z,11.66
2018-08-25T22:39:17.461Z,11.57
2018-08-25T22:41:47.717Z,11.55
2018-08-25T22:44:17.181Z,11.54
2018-08-25T22:46:46.560Z,11.52
2018-08-25T22:49:15.934Z,11.48
2018-08-25T22:51:46.322Z,11.43
2018-08-25T22:54:16.073Z,11.42
2018-08-25T22:56:46.529Z,11.46
2018-08-25T22:59:15.888Z,11.42
2018-08-25T23:01:45.275Z,11.48
2018-08-25T23:04:15.214Z,11.51
2018-08-25T23:06:44.556Z,11.53
2018-08-25T23:09:14.532Z,11.50
2018-08-25T23:11:44.500Z,11.49
2018-08-25T23:14:14.420Z,11.53
2018-08-25T23:16:44.625Z,11.44
2018-08-25T23:19:12.952Z,11.39
2018-08-25T23:21:42.295Z,11.40
2018-08-25T23:24:10.617Z,11.42
2018-08-25T23:26:39.965Z,11.35
2018-08-25T23:29:08.306Z,11.33
2018-08-25T23:31:37.565Z,11.33
2018-08-25T23:34:05.985Z,11.35
2018-08-25T23:36:35.240Z,11.33
2018-08-25T23:39:06.169Z,11.41
2018-08-25T23:41:35.781Z,11.42
2018-08-25T23:44:05.047Z,11.42
2018-08-25T23:46:34.357Z,11.46
2018-08-25T23:49:03.569Z,11.47
2018-08-25T23:51:32.908Z,11.41
2018-08-25T23:54:01.902Z,11.39
2018-08-25T23:56:31.141Z,11.38
2018-08-25T23:59:00.574Z,11.41
